Time;durP1;ratioP1;P1;durP2;ratioP2;P2;SDS_P1;SDS_P2;PMS_P1;PMS_P2;Temp;Humidity;BMP_temperature;BMP_pressure;BME280_temperature;BME280_humidity;BME280_pressure;Samples;Min_cycle;Max_cycle;Signal;HPM_P1;HPM_P2
2022/06/25 00:00:18;;;;;;;;;;;;;;;23.31;48.20;95499.53;10491458;28;1871;-59
2022/06/25 00:05:28;;;;;;;;;;;;;;;23.36;48.35;95498.69;10493075;28;1823;-52
2022/06/25 00:10:28;;;;;;;;;;;;;;;23.40;48.13;95499.66;10458739;28;1987;-58
2022/06/25 00:15:28;;;;;;;;;;;;;;;23.43;47.99;95507.00;10472811;28;2094;-55
2022/06/25 00:20:28;;;;;;;;;;;;;;;23.47;47.79;95504.53;10486009;28;2187;-55
2022/06/25 00:25:29;;;;;;;;;;;;;;;23.51;47.96;95505.53;10461149;28;1967;-55
2022/06/25 00:30:29;;;;;;;;;;;;;;;23.52;47.69;95501.78;10458539;28;2309;-56
2022/06/25 00:35:29;;;;;;;;;;;;;;;23.55;47.75;95506.50;10485693;28;2156;-54
2022/06/25 00:40:30;;;;;;;;;;;;;;;23.58;47.49;95505.88;10460463;28;2233;-57
2022/06/25 00:45:30;;;;;;;;;;;;;;;23.59;47.39;95500.31;10476157;28;2242;-56
2022/06/25 00:50:30;;;;;;;;;;;;;;;23.61;47.29;95500.78;10474769;28;2229;-57
2022/06/25 00:55:31;;;;;;;;;;;;;;;23.63;47.32;95498.63;10488725;28;2211;-55
2022/06/25 01:00:32;;;;;;;;;;;;;;;23.64;47.37;95494.88;10477939;28;1979;-56
2022/06/25 01:05:32;;;;;;;;;;;;;;;23.68;47.42;95495.84;10470013;28;2224;-57
2022/06/25 01:10:36;;;;;;;;;;;;;;;23.68;47.17;95487.91;10473136;28;1971;-57
2022/06/25 01:15:38;;;;;;;;;;;;;;;23.71;47.20;95486.53;10488785;28;2341;-58
2022/06/25 01:20:38;;;;;;;;;;;;;;;23.72;47.10;95488.13;10456779;28;2081;-58
2022/06/25 01:25:41;;;;;;;;;;;;;;;23.73;47.12;95487.81;10457769;28;1982;-56
2022/06/25 01:30:44;;;;;;;;;;;;;;;23.74;47.03;95483.31;10457111;28;2204;-56
2022/06/25 01:35:45;;;;;;;;;;;;;;;23.75;46.91;95484.84;10458853;28;2109;-57
2022/06/25 01:40:45;;;;;;;;;;;;;;;23.75;47.19;95485.66;10475082;28;2063;-57
2022/06/25 01:45:46;;;;;;;;;;;;;;;23.77;47.02;95488.78;10473008;28;2125;-57
2022/06/25 01:50:48;;;;;;;;;;;;;;;23.78;46.76;95490.31;10475147;28;2039;-57
2022/06/25 01:55:48;;;;;;;;;;;;;;;23.79;47.13;95485.81;10454186;28;2042;-58
2022/06/25 02:00:48;;;;;;;;;;;;;;;23.80;46.88;95487.41;10456807;28;2382;-57
2022/06/25 02:05:58;;;;;;;;;;;;;;;23.81;46.80;95496.88;10461459;28;2114;-58
2022/06/25 02:10:59;;;;;;;;;;;;;;;23.82;46.77;95491.28;10472877;28;1939;-57
2022/06/25 02:16:00;;;;;;;;;;;;;;;23.82;46.64;95495.81;10454751;28;1967;-58
2022/06/25 02:21:00;;;;;;;;;;;;;;;23.83;46.77;95505.31;10457864;28;1543;-55
2022/06/25 02:26:01;;;;;;;;;;;;;;;23.84;46.79;95512.97;10473572;28;2419;-56
2022/06/25 02:31:01;;;;;;;;;;;;;;;23.85;46.64;95501.28;10454013;28;1931;-57
2022/06/25 02:36:02;;;;;;;;;;;;;;;23.84;46.70;95502.38;10478016;28;1917;-58
2022/06/25 02:41:02;;;;;;;;;;;;;;;23.83;46.82;95503.47;10468902;28;2073;-56
2022/06/25 02:46:03;;;;;;;;;;;;;;;23.87;46.58;95509.72;10479987;28;1903;-58
2022/06/25 02:51:03;;;;;;;;;;;;;;;23.87;46.55;95504.41;10461055;28;1983;-56
2022/06/25 03:01:26;;;;;;;;;;;;;;;23.88;46.45;95513.94;10462488;28;1901;-56
2022/06/25 03:06:26;;;;;;;;;;;;;;;23.87;46.67;95520.31;10465855;28;1943;-55
2022/06/25 03:11:27;;;;;;;;;;;;;;;23.88;46.48;95513.94;10479478;28;2130;-56
2022/06/25 03:16:28;;;;;;;;;;;;;;;23.89;46.43;95518.13;10463991;28;1939;-57
2022/06/25 03:21:28;;;;;;;;;;;;;;;23.91;46.68;95523.13;10459349;28;2077;-57
2022/06/25 03:26:28;;;;;;;;;;;;;;;23.91;46.22;95528.41;10466747;28;2086;-59
2022/06/25 03:31:29;;;;;;;;;;;;;;;23.91;46.42;95531.06;10459437;28;1992;-57
2022/06/25 03:36:30;;;;;;;;;;;;;;;23.91;46.26;95529.22;10480800;28;2026;-59
2022/06/25 03:41:33;;;;;;;;;;;;;;;23.92;46.32;95540.59;10479989;28;2003;-58
2022/06/25 03:46:33;;;;;;;;;;;;;;;23.91;46.49;95542.44;10479458;28;1943;-57
2022/06/25 03:51:34;;;;;;;;;;;;;;;23.93;46.30;95539.50;10492864;28;2096;-55
2022/06/25 03:56:34;;;;;;;;;;;;;;;23.93;46.49;95545.56;10465933;28;2079;-58
2022/06/25 04:01:34;;;;;;;;;;;;;;;23.93;46.44;95550.88;10457345;28;2114;-57
2022/06/25 04:06:35;;;;;;;;;;;;;;;23.93;46.15;95550.88;10463437;28;1943;-57
2022/06/25 04:11:35;;;;;;;;;;;;;;;23.93;46.11;95558.03;10473557;28;1990;-58
2022/06/25 04:16:40;;;;;;;;;;;;;;;23.93;46.50;95550.88;10480984;28;1966;-57
2022/06/25 04:21:42;;;;;;;;;;;;;;;23.94;46.34;95556.97;10473732;28;2335;-55
2022/06/25 04:26:42;;;;;;;;;;;;;;;23.93;46.23;95556.16;10474089;28;1945;-57
2022/06/25 04:31:44;;;;;;;;;;;;;;;23.93;46.44;95556.16;10489113;28;1981;-57
2022/06/25 04:36:44;;;;;;;;;;;;;;;23.94;46.44;95565.69;10494231;28;1936;-57
2022/06/25 04:41:45;;;;;;;;;;;;;;;23.94;46.17;95571.00;10477423;28;1872;-58
2022/06/25 04:46:46;;;;;;;;;;;;;;;23.94;46.31;95568.34;10458651;28;2204;-58
2022/06/25 04:51:47;;;;;;;;;;;;;;;23.95;46.28;95577.84;10457458;28;2186;-57
2022/06/25 04:56:48;;;;;;;;;;;;;;;23.96;46.06;95573.31;10461792;28;1863;-57
2022/06/25 05:01:48;;;;;;;;;;;;;;;23.96;46.12;95575.97;10462258;28;1810;-58
2022/06/25 05:06:49;;;;;;;;;;;;;;;23.97;46.06;95588.13;10457055;28;1871;-57
2022/06/25 05:11:49;;;;;;;;;;;;;;;23.96;46.13;95587.34;10474112;28;1914;-52
2022/06/25 05:16:50;;;;;;;;;;;;;;;23.98;46.18;95595.78;10458242;28;1790;-57
2022/06/25 05:21:50;;;;;;;;;;;;;;;23.97;45.99;95596.84;10474502;28;2189;-58
2022/06/25 05:26:51;;;;;;;;;;;;;;;23.98;45.97;95601.06;10477683;28;1877;-59
2022/06/25 05:31:51;;;;;;;;;;;;;;;23.99;46.07;95607.91;10473229;28;1965;-56
2022/06/25 05:36:51;;;;;;;;;;;;;;;24.00;45.95;95604.22;10477270;28;1855;-57
2022/06/25 05:41:52;;;;;;;;;;;;;;;24.00;46.36;95609.50;10474325;28;1805;-58
2022/06/25 05:46:52;;;;;;;;;;;;;;;24.01;46.23;95604.97;10476013;28;1837;-56
2022/06/25 05:51:52;;;;;;;;;;;;;;;24.02;46.23;95604.69;10472331;28;1910;-58
2022/06/25 05:56:53;;;;;;;;;;;;;;;24.01;46.24;95603.09;10476430;28;1789;-57
2022/06/25 06:01:53;;;;;;;;;;;;;;;24.02;45.97;95611.84;10473787;28;1964;-58
2022/06/25 06:06:53;;;;;;;;;;;;;;;24.02;46.17;95612.63;10492978;28;1851;-57
2022/06/25 06:11:54;;;;;;;;;;;;;;;24.02;46.08;95612.63;10471878;28;1993;-55
2022/06/25 06:16:56;;;;;;;;;;;;;;;24.03;45.92;95619.50;10488197;28;1781;-57
2022/06/25 06:21:57;;;;;;;;;;;;;;;24.02;45.96;95623.22;10466655;28;1860;-57
2022/06/25 06:26:57;;;;;;;;;;;;;;;24.03;46.02;95630.09;10468804;28;1739;-55
2022/06/25 06:31:58;;;;;;;;;;;;;;;24.04;46.02;95636.19;10463412;28;1918;-57
2022/06/25 06:36:59;;;;;;;;;;;;;;;23.65;45.68;95635.94;10468759;28;1854;-55
2022/06/25 06:41:59;;;;;;;;;;;;;;;22.77;46.48;95647.56;10465145;28;1895;-57
2022/06/25 06:46:59;;;;;;;;;;;;;;;22.30;48.04;95650.38;10476675;28;1756;-55
2022/06/25 06:51:59;;;;;;;;;;;;;;;21.99;48.13;95654.53;10460460;28;2067;-57
2022/06/25 06:57:00;;;;;;;;;;;;;;;21.92;48.77;95654.88;10476296;28;1832;-56
2022/06/25 07:02:00;;;;;;;;;;;;;;;21.87;49.28;95647.00;10478109;28;1820;-57
2022/06/25 07:07:01;;;;;;;;;;;;;;;21.81;49.32;95648.13;10481718;28;1846;-58
2022/06/25 07:12:02;;;;;;;;;;;;;;;21.92;49.25;95639.03;10477387;28;1981;-58
2022/06/25 07:17:02;;;;;;;;;;;;;;;21.62;50.14;95644.66;10476473;28;1813;-58
2022/06/25 07:22:03;;;;;;;;;;;;;;;21.52;50.07;95635.03;10477710;28;2044;-58
2022/06/25 07:27:03;;;;;;;;;;;;;;;21.43;50.52;95630.66;10478099;28;1832;-57
2022/06/25 07:32:04;;;;;;;;;;;;;;;21.41;50.75;95633.56;10458319;28;1977;-56
2022/06/25 07:37:04;;;;;;;;;;;;;;;21.34;50.55;95627.06;10476775;28;1839;-56
2022/06/25 07:42:05;;;;;;;;;;;;;;;21.47;51.63;95637.72;10474029;28;1754;-58
2022/06/25 07:47:05;;;;;;;;;;;;;;;21.38;50.93;95620.94;10461740;28;1766;-59
2022/06/25 07:52:06;;;;;;;;;;;;;;;21.27;51.03;95629.25;10476885;28;1973;-59
2022/06/25 07:57:06;;;;;;;;;;;;;;;21.44;50.89;95632.22;10462371;28;1863;-58
2022/06/25 08:02:06;;;;;;;;;;;;;;;21.68;51.59;95632.97;10490852;28;1975;-57
2022/06/25 08:07:07;;;;;;;;;;;;;;;21.95;51.01;95629.78;10494796;28;1816;-56
2022/06/25 08:12:07;;;;;;;;;;;;;;;22.03;50.26;95627.25;10486682;28;1914;-57
2022/06/25 08:17:08;;;;;;;;;;;;;;;22.14;49.95;95619.97;10463452;28;1839;-58
2022/06/25 08:22:08;;;;;;;;;;;;;;;22.24;49.58;95623.25;10459236;28;1818;-58
2022/06/25 08:27:10;;;;;;;;;;;;;;;22.00;48.50;95622.56;10476009;28;1816;-59
2022/06/25 08:32:10;;;;;;;;;;;;;;;22.14;48.89;95625.25;10472957;28;1975;-59
2022/06/25 08:37:11;;;;;;;;;;;;;;;22.36;49.27;95620.97;10453922;28;1880;-58
2022/06/25 08:42:11;;;;;;;;;;;;;;;22.53;49.29;95612.50;10468733;28;1891;-57
2022/06/25 08:47:11;;;;;;;;;;;;;;;22.65;49.29;95618.94;10477922;28;1844;-57
2022/06/25 08:52:12;;;;;;;;;;;;;;;22.75;49.04;95609.28;10456045;28;2005;-59
2022/06/25 08:57:13;;;;;;;;;;;;;;;22.82;48.76;95610.47;10477129;28;1819;-56
2022/06/25 09:02:13;;;;;;;;;;;;;;;22.88;48.71;95606.66;10477040;28;1758;-59
2022/06/25 09:07:14;;;;;;;;;;;;;;;22.93;48.98;95603.16;10491301;28;1804;-59
2022/06/25 09:12:15;;;;;;;;;;;;;;;22.99;48.63;95599.34;10457796;28;1918;-56
2022/06/25 09:17:15;;;;;;;;;;;;;;;23.04;48.69;95596.63;10476289;28;1869;-57
2022/06/25 09:22:19;;;;;;;;;;;;;;;23.08;48.87;95589.66;10455324;28;1839;-57
2022/06/25 09:27:20;;;;;;;;;;;;;;;23.12;48.78;95591.41;10458746;28;1860;-56
2022/06/25 09:32:20;;;;;;;;;;;;;;;23.17;48.82;95587.91;10474022;28;1970;-57
2022/06/25 09:37:25;;;;;;;;;;;;;;;23.19;48.61;95588.38;10477079;28;1781;-58
2022/06/25 09:42:31;;;;;;;;;;;;;;;23.22;48.48;95593.88;10470306;28;1879;-59
2022/06/25 09:47:45;;;;;;;;;;;;;;;23.26;48.76;95583.50;10475013;28;1799;-57
2022/06/25 09:52:49;;;;;;;;;;;;;;;23.28;48.79;95582.13;10475214;28;2028;-59
2022/06/25 09:57:50;;;;;;;;;;;;;;;23.30;48.63;95579.97;10483585;28;1813;-57
2022/06/25 10:02:50;;;;;;;;;;;;;;;23.31;48.42;95576.25;10480475;28;1788;-58
2022/06/25 10:08:00;;;;;;;;;;;;;;;23.36;48.79;95583.31;10483845;28;1824;-58
2022/06/25 10:13:00;;;;;;;;;;;;;;;23.38;48.52;95571.38;10476192;28;1909;-56
2022/06/25 10:18:02;;;;;;;;;;;;;;;23.41;48.17;95564.72;10481651;28;1856;-58
2022/06/25 10:23:03;;;;;;;;;;;;;;;23.43;48.28;95562.56;10489374;28;1837;-59
2022/06/25 10:28:05;;;;;;;;;;;;;;;23.47;48.48;95560.09;10460852;28;1798;-57
2022/06/25 10:33:05;;;;;;;;;;;;;;;23.48;48.16;95556.38;10479050;28;1898;-59
2022/06/25 10:38:06;;;;;;;;;;;;;;;23.51;48.14;95538.06;10462786;28;1815;-58
2022/06/25 10:43:27;;;;;;;;;;;;;;;23.53;48.25;95535.91;10493316;28;1837;-59
2022/06/25 10:48:28;;;;;;;;;;;;;;;23.56;48.48;95537.94;10466092;28;1824;-60
2022/06/25 10:53:28;;;;;;;;;;;;;;;23.58;48.57;95527.84;10447295;28;1993;-58
2022/06/25 10:58:42;;;;;;;;;;;;;;;23.60;48.33;95538.91;10477551;28;1893;-58
2022/06/25 11:03:43;;;;;;;;;;;;;;;23.63;48.44;95538.31;10477856;28;1819;-59
2022/06/25 11:08:44;;;;;;;;;;;;;;;23.65;48.45;95533.50;10482594;28;1806;-60
2022/06/25 11:13:44;;;;;;;;;;;;;;;23.66;48.12;95523.72;10496872;28;1914;-56
2022/06/25 11:18:48;;;;;;;;;;;;;;;23.69;48.46;95526.53;10476509;28;1978;-60
2022/06/25 11:23:49;;;;;;;;;;;;;;;23.70;48.36;95522.81;10443190;28;1798;-59
2022/06/25 11:28:53;;;;;;;;;;;;;;;23.73;48.43;95518.78;10478646;28;1837;-59
2022/06/25 11:33:53;;;;;;;;;;;;;;;23.75;48.38;95521.91;10474167;28;1975;-59
2022/06/25 11:38:54;;;;;;;;;;;;;;;23.76;48.36;95518.97;10460230;28;1835;-60
2022/06/25 11:43:54;;;;;;;;;;;;;;;23.78;48.37;95510.75;10459003;28;1866;-59
2022/06/25 11:48:54;;;;;;;;;;;;;;;23.79;48.31;95501.69;10461023;28;1839;-58
2022/06/25 11:53:55;;;;;;;;;;;;;;;23.80;48.16;95504.03;10440651;28;1939;-58
2022/06/25 11:58:55;;;;;;;;;;;;;;;23.81;48.23;95489.75;10459227;28;1646;-58
2022/06/25 12:03:56;;;;;;;;;;;;;;;23.83;48.30;95495.50;10475334;28;1799;-59
2022/06/25 12:08:56;;;;;;;;;;;;;;;23.86;48.35;95494.94;10461971;28;1823;-57
2022/06/25 12:13:57;;;;;;;;;;;;;;;23.88;48.63;95489.31;10460093;28;2106;-56
2022/06/25 12:18:58;;;;;;;;;;;;;;;23.90;48.24;95485.31;10457283;28;1871;-56
2022/06/25 12:23:58;;;;;;;;;;;;;;;23.91;48.53;95478.91;10456601;28;1908;-59
2022/06/25 12:29:05;;;;;;;;;;;;;;;23.93;48.31;95476.75;10460038;28;1860;-57
2022/06/25 12:34:07;;;;;;;;;;;;;;;23.94;48.52;95459.78;10492436;28;1974;-58
2022/06/25 12:39:26;;;;;;;;;;;;;;;23.95;48.39;95465.84;10454108;28;1835;-58
2022/06/25 12:44:33;;;;;;;;;;;;;;;23.96;48.43;95462.13;10486883;28;1759;-57
2022/06/25 12:49:40;;;;;;;;;;;;;;;23.97;48.13;95450.44;10487163;28;1808;-59
2022/06/25 12:54:42;;;;;;;;;;;;;;;23.98;48.30;95457.31;10478973;28;1886;-58
2022/06/25 12:59:43;;;;;;;;;;;;;;;23.99;48.08;95453.56;10473114;28;1838;-58
2022/06/25 13:04:44;;;;;;;;;;;;;;;24.00;48.24;95453.28;10460449;28;1896;-58
2022/06/25 13:09:45;;;;;;;;;;;;;;;24.01;48.28;95446.91;10453628;28;1882;-59
2022/06/25 13:14:46;;;;;;;;;;;;;;;24.04;48.38;95446.34;10468780;28;1907;-60
2022/06/25 13:19:46;;;;;;;;;;;;;;;24.07;48.85;95439.66;10468278;28;1825;-60
2022/06/25 13:24:46;;;;;;;;;;;;;;;24.08;48.48;95435.91;10469644;28;1793;-59
2022/06/25 13:29:47;;;;;;;;;;;;;;;24.07;48.57;95439.66;10468509;28;1927;-59
2022/06/25 13:34:50;;;;;;;;;;;;;;;24.08;48.44;95426.09;10458228;28;1891;-58
2022/06/25 13:39:51;;;;;;;;;;;;;;;24.08;48.58;95423.47;10472366;28;1857;-59
2022/06/25 13:44:52;;;;;;;;;;;;;;;24.09;48.69;95425.00;10475907;28;1819;-58
2022/06/25 13:49:52;;;;;;;;;;;;;;;24.12;48.43;95426.28;10474034;28;1942;-58
2022/06/25 13:54:52;;;;;;;;;;;;;;;24.12;48.38;95423.63;10471775;28;1848;-56
2022/06/25 13:59:53;;;;;;;;;;;;;;;24.12;48.49;95405.88;10469956;28;1879;-55
2022/06/25 14:04:53;;;;;;;;;;;;;;;24.11;48.45;95406.19;10477037;28;1832;-59
2022/06/25 14:09:53;;;;;;;;;;;;;;;24.12;48.18;95407.75;10472839;28;2003;-61
2022/06/25 14:14:54;;;;;;;;;;;;;;;24.12;48.82;95411.19;10450001;28;1703;-58
2022/06/25 14:19:56;;;;;;;;;;;;;;;24.13;48.51;95401.38;10473432;28;1799;-58
2022/06/25 14:30:16;;;;;;;;;;;;;;;24.13;48.38;95398.72;10467718;28;1918;-58
2022/06/25 14:35:18;;;;;;;;;;;;;;;24.14;48.07;95387.03;10456905;28;2169;-56
2022/06/25 14:45:38;;;;;;;;;;;;;;;24.15;48.42;95392.00;10460727;28;1821;-56
2022/06/25 14:50:38;;;;;;;;;;;;;;;24.14;48.48;95385.16;10467774;28;1910;-58
2022/06/25 14:55:39;;;;;;;;;;;;;;;24.16;48.32;95384.84;10473502;28;1801;-59
2022/06/25 15:00:39;;;;;;;;;;;;;;;24.17;48.50;95392.50;10464389;28;1872;-59
2022/06/25 15:05:39;;;;;;;;;;;;;;;24.18;48.65;95385.34;10460521;28;1843;-59
2022/06/25 15:10:40;;;;;;;;;;;;;;;24.17;48.16;95381.91;10464546;28;1906;-60
2022/06/25 15:15:41;;;;;;;;;;;;;;;24.17;48.44;95375.84;10457536;28;1949;-59
2022/06/25 15:20:41;;;;;;;;;;;;;;;24.18;48.71;95372.88;10483137;28;1839;-59
2022/06/25 15:25:42;;;;;;;;;;;;;;;24.19;48.49;95374.44;10474503;28;1827;-59
2022/06/25 15:30:42;;;;;;;;;;;;;;;24.19;48.44;95358.53;10476520;28;1969;-59
2022/06/25 15:35:42;;;;;;;;;;;;;;;24.19;48.51;95363.84;10480595;28;1754;-58
2022/06/25 15:40:44;;;;;;;;;;;;;;;24.21;48.39;95371.50;10478472;28;1825;-57
2022/06/25 15:45:44;;;;;;;;;;;;;;;24.21;48.49;95363.56;10458763;28;1888;-59
2022/06/25 15:50:45;;;;;;;;;;;;;;;24.20;48.37;95368.06;10480124;28;1906;-59
2022/06/25 15:55:45;;;;;;;;;;;;;;;24.19;47.96;95355.88;10478388;28;1848;-57
2022/06/25 16:00:46;;;;;;;;;;;;;;;24.19;47.94;95360.44;10487394;28;1833;-57
2022/06/25 16:05:46;;;;;;;;;;;;;;;24.21;48.37;95355.59;10477026;28;1800;-58
2022/06/25 16:10:46;;;;;;;;;;;;;;;24.22;48.26;95357.16;10479683;28;1918;-58
2022/06/25 16:15:47;;;;;;;;;;;;;;;24.22;48.22;95350.00;10452845;28;2013;-58
2022/06/25 16:20:47;;;;;;;;;;;;;;;24.23;47.99;95353.44;10489565;28;1851;-58
2022/06/25 16:25:47;;;;;;;;;;;;;;;24.23;48.00;95353.44;10460914;28;1824;-59
2022/06/25 16:30:47;;;;;;;;;;;;;;;24.23;48.14;95354.19;10490284;28;1913;-59
2022/06/25 16:35:48;;;;;;;;;;;;;;;24.23;48.07;95348.13;10459152;28;1816;-59
2022/06/25 16:40:48;;;;;;;;;;;;;;;24.23;47.99;95350.78;10490838;28;1895;-60
2022/06/25 16:45:49;;;;;;;;;;;;;;;24.22;47.92;95350.00;10457620;28;1787;-59
2022/06/25 16:50:49;;;;;;;;;;;;;;;24.24;48.23;95350.47;10485100;28;1910;-58
2022/06/25 16:55:49;;;;;;;;;;;;;;;24.24;48.10;95352.31;10457779;28;1829;-59
2022/06/25 17:00:50;;;;;;;;;;;;;;;24.24;47.88;95353.13;10476147;28;1809;-58
2022/06/25 17:05:50;;;;;;;;;;;;;;;24.24;47.91;95355.75;10473775;28;1832;-59
2022/06/25 17:10:51;;;;;;;;;;;;;;;24.24;47.83;95355.75;10476003;28;1910;-58
2022/06/25 17:15:52;;;;;;;;;;;;;;;24.25;47.79;95359.97;10473137;28;1796;-56
2022/06/25 17:20:52;;;;;;;;;;;;;;;24.25;48.12;95346.72;10475680;28;1867;-58
2022/06/25 17:25:52;;;;;;;;;;;;;;;24.27;48.12;95340.34;10472510;28;1827;-59
2022/06/25 17:30:53;;;;;;;;;;;;;;;24.27;48.13;95345.66;10457904;28;1989;-58
2022/06/25 17:35:55;;;;;;;;;;;;;;;24.28;47.81;95339.28;10487399;28;1812;-59
2022/06/25 17:40:55;;;;;;;;;;;;;;;24.27;47.97;95354.38;10484694;28;1863;-58
2022/06/25 17:45:56;;;;;;;;;;;;;;;24.25;47.96;95354.66;10472933;28;1857;-58
2022/06/25 17:50:57;;;;;;;;;;;;;;;24.27;47.88;95356.25;10485725;28;1970;-59
2022/06/25 17:55:57;;;;;;;;;;;;;;;24.28;47.79;95349.88;10487379;28;1848;-57
2022/06/25 18:00:58;;;;;;;;;;;;;;;24.28;47.91;95344.56;10483377;28;1858;-59
2022/06/25 18:05:58;;;;;;;;;;;;;;;24.27;47.75;95354.38;10481823;28;1863;-58
2022/06/25 18:11:15;;;;;;;;;;;;;;;24.29;47.79;95359.38;10484308;28;1914;-58
2022/06/25 18:16:15;;;;;;;;;;;;;;;24.27;47.83;95367.63;10480519;28;1820;-59
2022/06/25 18:21:16;;;;;;;;;;;;;;;24.27;47.82;95358.88;10494987;28;1883;-59
2022/06/25 18:26:16;;;;;;;;;;;;;;;24.28;47.45;95365.75;10466796;28;1835;-58
2022/06/25 18:31:16;;;;;;;;;;;;;;;24.29;47.68;95367.31;10494013;28;1913;-58
2022/06/25 18:36:16;;;;;;;;;;;;;;;24.27;47.58;95370.28;10464638;28;1712;-59
2022/06/25 18:41:17;;;;;;;;;;;;;;;24.28;47.73;95365.75;10458522;28;1834;-57
2022/06/25 18:46:18;;;;;;;;;;;;;;;24.28;47.49;95368.41;10465476;28;1863;-59
2022/06/25 18:51:19;;;;;;;;;;;;;;;24.30;47.55;95368.88;10481388;28;1977;-59
2022/06/25 18:56:22;;;;;;;;;;;;;;;24.29;47.25;95370.75;10476802;28;1797;-59
2022/06/25 19:01:23;;;;;;;;;;;;;;;24.29;47.23;95373.41;10476087;28;1888;-58
2022/06/25 19:06:25;;;;;;;;;;;;;;;24.29;47.52;95376.03;10480361;28;1805;-59
2022/06/25 19:11:26;;;;;;;;;;;;;;;24.29;47.49;95385.84;10461511;28;1901;-59
2022/06/25 19:16:27;;;;;;;;;;;;;;;24.30;47.65;95390.06;10456805;28;2124;-57
2022/06/25 19:21:29;;;;;;;;;;;;;;;24.30;47.17;95393.47;10454627;28;1815;-58
2022/06/25 19:26:29;;;;;;;;;;;;;;;24.30;47.26;95392.72;10488224;28;1862;-59
2022/06/25 19:31:30;;;;;;;;;;;;;;;24.30;47.34;95400.66;10473296;28;1902;-57
2022/06/25 19:36:32;;;;;;;;;;;;;;;24.29;47.23;95410.47;10479377;28;1880;-59
2022/06/25 19:41:33;;;;;;;;;;;;;;;24.30;47.25;95395.38;10469635;28;1833;-57
2022/06/25 19:46:36;;;;;;;;;;;;;;;24.30;47.40;95416.56;10482972;28;1824;-59
2022/06/25 19:51:37;;;;;;;;;;;;;;;24.31;47.24;95418.91;10474305;28;2348;-58
2022/06/25 19:56:37;;;;;;;;;;;;;;;24.31;47.12;95410.97;10461227;28;1876;-56
2022/06/25 20:01:38;;;;;;;;;;;;;;;24.30;47.39;95408.63;10460024;28;1832;-58
2022/06/25 20:06:38;;;;;;;;;;;;;;;24.32;47.26;95417.03;10461883;28;1792;-56
2022/06/25 20:11:38;;;;;;;;;;;;;;;24.34;47.22;95414.88;10487947;28;1906;-56
2022/06/25 20:16:39;;;;;;;;;;;;;;;24.33;47.28;95418.59;10455427;28;2100;-58
2022/06/25 20:21:40;;;;;;;;;;;;;;;24.32;47.25;95425.00;10469351;28;2161;-59
2022/06/25 20:26:40;;;;;;;;;;;;;;;24.31;47.22;95423.41;10492618;28;1884;-57
2022/06/25 20:31:40;;;;;;;;;;;;;;;24.32;47.26;95419.69;10458086;28;1918;-59
2022/06/25 20:36:41;;;;;;;;;;;;;;;24.32;46.88;95414.38;10474013;28;1840;-59
2022/06/25 20:41:41;;;;;;;;;;;;;;;24.31;46.91;95416.25;10456018;28;2039;-58
2022/06/25 20:46:41;;;;;;;;;;;;;;;24.32;46.92;95417.81;10460961;28;1815;-56
2022/06/25 20:51:41;;;;;;;;;;;;;;;24.32;46.93;95406.44;10470643;28;1917;-58
2022/06/25 20:56:42;;;;;;;;;;;;;;;24.33;46.95;95413.28;10475032;28;1813;-58
2022/06/25 21:01:42;;;;;;;;;;;;;;;24.34;46.83;95404.28;10457688;28;1781;-59
2022/06/25 21:12:02;;;;;;;;;;;;;;;24.33;46.96;95402.69;10472724;28;1906;-58
2022/06/25 21:17:03;;;;;;;;;;;;;;;24.34;46.96;95412.22;10476149;28;1839;-57
2022/06/25 21:22:05;;;;;;;;;;;;;;;24.33;47.07;95406.13;10456485;28;1886;-56
2022/06/25 21:27:10;;;;;;;;;;;;;;;24.34;46.95;95405.03;10458325;28;1839;-59
2022/06/25 21:32:10;;;;;;;;;;;;;;;24.34;46.93;95417.50;10473737;28;1972;-58
2022/06/25 21:37:11;;;;;;;;;;;;;;;24.34;47.06;95428.13;10475406;28;1856;-57
2022/06/25 21:42:11;;;;;;;;;;;;;;;24.33;46.77;95423.88;10468524;28;1946;-57
2022/06/25 21:47:11;;;;;;;;;;;;;;;24.34;46.79;95433.41;10474476;28;1902;-58
2022/06/25 21:52:12;;;;;;;;;;;;;;;24.33;46.83;95429.97;10480367;28;1918;-59
2022/06/25 21:57:13;;;;;;;;;;;;;;;24.35;46.89;95434.97;10479303;28;1847;-57
2022/06/25 22:02:13;;;;;;;;;;;;;;;24.35;46.81;95434.97;10480321;28;1800;-57
2022/06/25 22:07:16;;;;;;;;;;;;;;;24.34;46.64;95438.72;10484519;28;1845;-56
2022/06/25 22:12:16;;;;;;;;;;;;;;;24.36;46.74;95433.88;10486027;28;1906;-60
2022/06/25 22:17:16;;;;;;;;;;;;;;;24.35;46.47;95435.75;10462401;28;1729;-59
2022/06/25 22:22:17;;;;;;;;;;;;;;;24.35;46.68;95435.75;10494987;28;1813;-57
2022/06/25 22:27:18;;;;;;;;;;;;;;;24.36;46.63;95436.53;10484827;28;1774;-58
2022/06/25 22:32:19;;;;;;;;;;;;;;;24.35;46.59;95433.09;10480704;28;1987;-56
2022/06/25 22:37:19;;;;;;;;;;;;;;;24.36;46.64;95431.25;10482050;28;1811;-58
2022/06/25 22:42:20;;;;;;;;;;;;;;;24.35;46.74;95429.66;10478460;28;1878;-60
2022/06/25 22:47:20;;;;;;;;;;;;;;;24.34;46.75;95426.22;10469858;28;1579;-56
2022/06/25 22:52:20;;;;;;;;;;;;;;;24.36;46.65;95433.88;10480052;28;1985;-58
2022/06/25 22:57:21;;;;;;;;;;;;;;;24.37;46.66;95424.84;10476486;28;2137;-57
2022/06/25 23:02:22;;;;;;;;;;;;;;;24.36;46.70;95431.25;10493735;28;2431;-57
2022/06/25 23:07:22;;;;;;;;;;;;;;;24.36;46.70;95431.25;10478521;28;2074;-56
2022/06/25 23:12:23;;;;;;;;;;;;;;;24.39;46.67;95441.22;10475615;28;1917;-55
2022/06/25 23:17:23;;;;;;;;;;;;;;;24.37;46.45;95438.88;10469708;28;1875;-57
2022/06/25 23:22:24;;;;;;;;;;;;;;;24.38;46.52;95434.38;10475449;28;1969;-58
2022/06/25 23:27:24;;;;;;;;;;;;;;;24.37;46.44;95438.09;10457850;28;1808;-57
2022/06/25 23:32:24;;;;;;;;;;;;;;;24.36;46.34;95439.19;10457751;28;1922;-59
2022/06/25 23:37:25;;;;;;;;;;;;;;;24.36;46.32;95447.13;10480299;28;1864;-58
2022/06/25 23:42:25;;;;;;;;;;;;;;;24.36;46.33;95436.53;10474664;28;1770;-58
2022/06/25 23:47:26;;;;;;;;;;;;;;;24.36;46.47;95445.25;10459799;28;1852;-57
2022/06/25 23:52:26;;;;;;;;;;;;;;;24.37;46.50;95438.09;10478811;28;1983;-59
2022/06/25 23:57:27;;;;;;;;;;;;;;;24.37;46.46;95452.13;10480109;28;1800;-56
